Terminal Aerodrome Forecast
Issued by NWS

Home | Current Version | Previous Version | Text Only | Print | Product List | Glossary On
Versions: 1 2 3 4 5 6 7 8 9 10 11 12 13 14 15 16 17 18 19 20
176
FTUS43 KGRR 172122 AAA
TAFAZO
TAF AMD
KAZO 172122Z 1721/1818 25011KT P6SM BKN050
     FM180800 25010KT P6SM VCSH OVC025
     FM181000 26010KT P6SM VCSH OVC015
     FM181500 27010KT P6SM BKN025=

USA.gov is the U.S. government's official web portal to all federal, state and local government web resources and services.